»·PEaware :: QXE2403 KBOI-KSJC

QXE2403 :: KBOI-KSJC

FLIGHT INFORMATION

Flight Status: Arrived
Operator:
Horizon Air
More flights by this operator :: More flights under this callsign
Pilot: Anonymous 16594 (16594)
Aircraft: DEHAVILLAND DASH 8 400
(DH8D)
More flights by this aircraft type
Origin: KBOI Boise Air Terminal/Gowen
United States
Destination: KSJC Mineta San Jose Intl
United States
More flights between these airports :: More routes between these airports
Route: +REO J7 FMG HYP5
File this flight plan on PilotEdge
Remarks:
Altitude:
(Current/Filed)
24,000ft
Speed:
(Current/Filed)
348kts
Departed: 23-Sep-17 07:43 PM
Arrived: 23-Sep-17 09:19 PM
Distance/Time
Traveled:
454nm/1:36
Distance/Time
To Go:
Arrived

Flight Plot

Page will automatically refresh every two minutes.


Map Options




Map Legend


Flown Route
Filed Route
Departure Airport
Arrival Airport
Navaid (VOR, NDB)
Fix

Horizontal Profiles

Position Reports

Time Latitude Longitude Heading Altitude Ground
Speed
23-Sep-17 19:16 43.566888 -116.219675 26 2878ft 0kts
23-Sep-17 19:17 43.566888 -116.219675 26 2878ft 0kts
23-Sep-17 19:18 43.566888 -116.219675 26 2878ft 0kts
23-Sep-17 19:19 43.566888 -116.219675 26 2878ft 0kts
23-Sep-17 19:20 43.566888 -116.219675 26 2878ft 0kts
23-Sep-17 19:21 43.566888 -116.219675 26 2878ft 0kts
23-Sep-17 19:22 43.566888 -116.219675 26 2878ft 0kts
23-Sep-17 19:23 43.566888 -116.219675 26 2878ft 0kts
23-Sep-17 19:24 43.566888 -116.219675 26 2878ft 0kts
23-Sep-17 19:25 43.566888 -116.219675 26 2878ft 0kts
23-Sep-17 19:26 43.566888 -116.219675 26 2878ft 0kts
23-Sep-17 19:27 43.566888 -116.219675 26 2878ft 0kts
23-Sep-17 19:28 43.566888 -116.219675 26 2878ft 0kts
23-Sep-17 19:29 43.566888 -116.219675 26 2878ft 0kts
23-Sep-17 19:30 43.566888 -116.219675 26 2878ft 0kts
23-Sep-17 19:31 43.566888 -116.219675 26 2878ft 0kts
23-Sep-17 19:32 43.566888 -116.219675 26 2878ft 0kts
23-Sep-17 19:33 43.566888 -116.219675 26 2878ft 0kts
23-Sep-17 19:34 43.566888 -116.219675 26 2878ft 0kts
23-Sep-17 19:35 43.566888 -116.219675 26 2878ft 0kts
23-Sep-17 19:36 43.566889 -116.219675 26 2878ft 0kts
23-Sep-17 19:37 43.566847 -116.219702 27 2878ft 2kts
23-Sep-17 19:38 43.566598 -116.220340 114 2878ft 1kts
23-Sep-17 19:39 43.566617 -116.220395 114 2878ft 0kts
23-Sep-17 19:40 43.566617 -116.220395 114 2878ft 0kts
23-Sep-17 19:41 43.566617 -116.220395 114 2878ft 0kts
23-Sep-17 19:42 43.566567 -116.220267 122 2878ft 5kts
23-Sep-17 19:43 43.563950 -116.214757 114 2878ft 21kts
23-Sep-17 19:44 43.560627 -116.204977 114 2878ft 9kts
23-Sep-17 19:45 43.559435 -116.202695 205 2878ft 0kts
23-Sep-17 19:46 43.559368 -116.202740 205 2878ft 5kts
23-Sep-17 19:47 43.563230 -116.216684 291 2879ft 129kts
23-Sep-17 19:48 43.561369 -116.267525 230 4955ft 150kts
23-Sep-17 19:49 43.528874 -116.321439 230 6946ft 199kts
23-Sep-17 19:50 43.492148 -116.383249 231 9416ft 211kts
23-Sep-17 19:51 43.454157 -116.448223 230 11680ft 222kts
23-Sep-17 19:52 43.414176 -116.516044 229 13749ft 230kts
23-Sep-17 19:53 43.372084 -116.586189 230 15492ft 239kts
23-Sep-17 19:54 43.325780 -116.663306 230 16021ft 289kts
23-Sep-17 19:55 43.271018 -116.754672 231 16040ft 327kts
23-Sep-17 19:56 43.216529 -116.845037 232 18250ft 279kts
23-Sep-17 19:57 43.167906 -116.925147 232 19811ft 272kts
23-Sep-17 19:58 43.118558 -117.006223 232 20867ft 279kts
23-Sep-17 19:59 43.067861 -117.089649 233 21777ft 285kts
23-Sep-17 20:00 43.016649 -117.173805 233 22640ft 291kts
23-Sep-17 20:01 42.963959 -117.260123 233 23480ft 296kts
23-Sep-17 20:02 42.910052 -117.348397 234 23997ft 310kts
23-Sep-17 20:03 42.852773 -117.442389 234 24030ft 337kts
23-Sep-17 20:04 42.792376 -117.541229 233 24034ft 354kts
23-Sep-17 20:05 42.728438 -117.645347 233 24036ft 365kts
23-Sep-17 20:06 42.663248 -117.750894 233 24036ft 372kts
23-Sep-17 20:07 42.595347 -117.858983 227 24034ft 378kts
23-Sep-17 20:08 42.501046 -117.923053 202 24036ft 386kts
23-Sep-17 20:09 42.402591 -117.982999 206 24036ft 387kts
23-Sep-17 20:10 42.304409 -118.043104 206 24035ft 391kts
23-Sep-17 20:11 42.205179 -118.103682 207 24035ft 394kts
23-Sep-17 20:12 42.105258 -118.164729 206 24034ft 397kts
23-Sep-17 20:13 42.004327 -118.225583 206 24032ft 398kts
23-Sep-17 20:14 41.903476 -118.286257 206 24031ft 399kts
23-Sep-17 20:15 41.802061 -118.347038 206 24029ft 400kts
23-Sep-17 20:16 41.700749 -118.407544 206 24027ft 400kts
23-Sep-17 20:17 41.599492 -118.467892 206 24026ft 400kts
23-Sep-17 20:18 41.497901 -118.528079 206 24028ft 399kts
23-Sep-17 20:19 41.396712 -118.588009 206 24030ft 399kts
23-Sep-17 20:20 41.295409 -118.647607 206 24031ft 400kts
23-Sep-17 20:21 41.194705 -118.706827 206 24030ft 400kts
23-Sep-17 20:22 41.092088 -118.766856 206 24031ft 400kts
23-Sep-17 20:23 40.990356 -118.826165 207 24028ft 401kts
23-Sep-17 20:24 40.888626 -118.885280 207 24027ft 401kts
23-Sep-17 20:25 40.786744 -118.944407 207 24025ft 401kts
23-Sep-17 20:26 40.684386 -119.003403 207 24024ft 401kts
23-Sep-17 20:27 40.582707 -119.061993 207 24024ft 401kts
23-Sep-17 20:28 40.480565 -119.120829 207 24023ft 400kts
23-Sep-17 20:29 40.378525 -119.179116 207 24023ft 400kts
23-Sep-17 20:30 40.276489 -119.237280 207 24022ft 400kts
23-Sep-17 20:31 40.174665 -119.295101 207 24022ft 400kts
23-Sep-17 20:32 40.072802 -119.352724 207 24022ft 400kts
23-Sep-17 20:33 39.970970 -119.410093 207 24022ft 400kts
23-Sep-17 20:34 39.868902 -119.467292 207 24023ft 399kts
23-Sep-17 20:35 39.768191 -119.524059 207 24024ft 398kts
23-Sep-17 20:36 39.667999 -119.579976 207 24025ft 398kts
23-Sep-17 20:37 39.572458 -119.633106 207 24026ft 398kts
23-Sep-17 20:38 39.468138 -119.662940 180 24027ft 406kts
23-Sep-17 20:39 39.356246 -119.665383 184 24028ft 405kts
23-Sep-17 20:40 39.243736 -119.674514 184 24033ft 405kts
23-Sep-17 20:41 39.131776 -119.681049 184 24035ft 405kts
23-Sep-17 20:42 39.019904 -119.688040 184 24035ft 405kts
23-Sep-17 20:43 38.907642 -119.694909 184 24079ft 404kts
23-Sep-17 20:44 38.795839 -119.701676 184 24114ft 404kts
23-Sep-17 20:45 38.683495 -119.708601 184 24109ft 405kts
23-Sep-17 20:46 38.571235 -119.715330 184 24101ft 406kts
23-Sep-17 20:47 38.459888 -119.722146 184 24099ft 406kts
23-Sep-17 20:48 38.347123 -119.728852 184 24091ft 406kts
23-Sep-17 20:49 38.234264 -119.735807 184 24084ft 406kts
23-Sep-17 20:50 38.122306 -119.742385 184 24077ft 405kts
23-Sep-17 20:51 38.009758 -119.749132 184 24066ft 405kts
23-Sep-17 20:52 37.896750 -119.755461 185 24043ft 405kts
23-Sep-17 20:53 37.785026 -119.762559 185 24043ft 405kts
23-Sep-17 20:54 37.675201 -119.781602 216 24006ft 387kts
23-Sep-17 20:55 37.607210 -119.877721 236 23997ft 370kts
23-Sep-17 20:56 37.536480 -119.972189 234 24002ft 371kts
23-Sep-17 20:57 37.467817 -120.065104 236 23525ft 354kts
23-Sep-17 20:58 37.401772 -120.154716 235 23021ft 342kts
23-Sep-17 20:59 37.337921 -120.241032 236 22241ft 343kts
23-Sep-17 21:00 37.271514 -120.330999 234 20442ft 357kts
23-Sep-17 21:01 37.212775 -120.428486 259 18198ft 340kts
23-Sep-17 21:02 37.190111 -120.541843 261 15654ft 336kts
23-Sep-17 21:03 37.166642 -120.651937 259 12819ft 319kts
23-Sep-17 21:04 37.144701 -120.752886 257 11990ft 298kts
23-Sep-17 21:05 37.122566 -120.852946 258 11967ft 291kts
23-Sep-17 21:06 37.100875 -120.950921 258 11250ft 294kts
23-Sep-17 21:07 37.079762 -121.047335 257 9658ft 284kts
23-Sep-17 21:08 37.058721 -121.141621 256 8049ft 276kts
23-Sep-17 21:09 37.040633 -121.233088 273 6448ft 267kts
23-Sep-17 21:10 37.054200 -121.320229 283 5121ft 233kts
23-Sep-17 21:11 37.065745 -121.393820 283 4315ft 213kts
23-Sep-17 21:12 37.077244 -121.466316 283 4007ft 197kts
23-Sep-17 21:13 37.087345 -121.530167 283 4000ft 176kts
23-Sep-17 21:14 37.096506 -121.589567 283 4088ft 181kts
23-Sep-17 21:15 37.122733 -121.652488 310 3993ft 207kts
23-Sep-17 21:16 37.158019 -121.701320 317 4009ft 180kts
23-Sep-17 21:17 37.192942 -121.742293 320 4094ft 161kts
23-Sep-17 21:18 37.228022 -121.781612 321 3315ft 149kts
23-Sep-17 21:19 37.256529 -121.813243 322 2638ft 136kts
23-Sep-17 21:20 37.287921 -121.847385 321 1835ft 150kts
23-Sep-17 21:21 37.317702 -121.880161 320 1090ft 145kts
23-Sep-17 21:22 37.348109 -121.913757 319 280ft 138kts
23-Sep-17 21:23 37.364147 -121.931530 323 69ft 10kts
23-Sep-17 21:24 37.365637 -121.931289 34 69ft 9kts
23-Sep-17 21:25 37.366295 -121.927672 137 69ft 11kts
23-Sep-17 21:26 37.366692 -121.926377 49 69ft 0kts
23-Sep-17 21:27 37.366692 -121.926377 49 69ft 0kts
23-Sep-17 21:28 37.366692 -121.926377 49 69ft 0kts

Navigation Log

Ident Type
Flight plan parsing failed, navigation log unavailable